Time;durP1;ratioP1;P1;durP2;ratioP2;P2;SDS_P1;SDS_P2;PMS_P1;PMS_P2;Temp;Humidity;BMP_temperature;BMP_pressure;BME280_temperature;BME280_humidity;BME280_pressure;Samples;Min_cycle;Max_cycle;Signal;HPM_P1;HPM_P2
2024/01/02 00:02:12;;;;;;;8.18;2.35;;;;;;;;;;6268147;22;20030;-91
2024/01/02 00:04:38;;;;;;;9.20;2.35;;;;;;;;;;6295263;22;20814;-92
2024/01/02 00:07:04;;;;;;;5.35;1.90;;;;;;;;;;6266694;22;20015;-92
2024/01/02 00:09:30;;;;;;;7.28;2.58;;;;;;;;;;6243527;22;20027;-92
2024/01/02 00:11:56;;;;;;;5.93;1.80;;;;;;;;;;6293580;22;20466;-92
2024/01/02 00:14:22;;;;;;;5.03;1.67;;;;;;;;;;6269151;22;20435;-91
2024/01/02 00:16:48;;;;;;;7.18;1.70;;;;;;;;;;6269665;22;20080;-92
2024/01/02 00:19:14;;;;;;;9.02;2.05;;;;;;;;;;6242842;22;20019;-92
2024/01/02 00:21:40;;;;;;;3.92;1.75;;;;;;;;;;6243795;22;20015;-91
2024/01/02 00:24:06;;;;;;;8.95;2.00;;;;;;;;;;6269199;22;20142;-91
2024/01/02 00:26:32;;;;;;;11.07;2.42;;;;;;;;;;6244691;22;20047;-91
2024/01/02 00:28:58;;;;;;;8.32;1.85;;;;;;;;;;6237161;22;20007;-92
2024/01/02 00:31:24;;;;;;;8.02;2.05;;;;;;;;;;6293648;22;20391;-92
2024/01/02 00:33:50;;;;;;;6.90;1.55;;;;;;;;;;6237570;22;20019;-92
2024/01/02 00:36:16;;;;;;;8.45;1.95;;;;;;;;;;6264642;22;20182;-91
2024/01/02 00:38:42;;;;;;;4.35;2.03;;;;;;;;;;6243594;22;20154;-92
2024/01/02 00:41:08;;;;;;;4.72;2.00;;;;;;;;;;6264823;22;20022;-92
2024/01/02 00:43:34;;;;;;;4.53;1.88;;;;;;;;;;6241245;22;20414;-92
2024/01/02 00:46:00;;;;;;;8.55;2.00;;;;;;;;;;6266045;22;20015;-92
2024/01/02 00:48:26;;;;;;;4.05;1.63;;;;;;;;;;6243052;22;20014;-91
2024/01/02 00:50:52;;;;;;;6.95;2.22;;;;;;;;;;6242952;22;20058;-92
2024/01/02 00:53:18;;;;;;;3.25;1.45;;;;;;;;;;6240444;22;20050;-91
2024/01/02 00:55:44;;;;;;;5.47;1.73;;;;;;;;;;6244905;22;20015;-91
2024/01/02 00:58:10;;;;;;;8.55;1.77;;;;;;;;;;6267966;22;20404;-91
2024/01/02 01:00:36;;;;;;;7.32;1.98;;;;;;;;;;6270031;22;20011;-91
2024/01/02 01:03:02;;;;;;;4.28;1.60;;;;;;;;;;6241948;22;20541;-92
2024/01/02 01:05:28;;;;;;;2.70;1.23;;;;;;;;;;6245272;22;20008;-92
2024/01/02 01:07:54;;;;;;;6.20;1.42;;;;;;;;;;6243260;22;20500;-91
2024/01/02 01:10:21;;;;;;;5.30;1.73;;;;;;;;;;6267166;22;20027;-91
2024/01/02 01:12:47;;;;;;;2.22;1.30;;;;;;;;;;6268760;22;20058;-92
2024/01/02 01:15:13;;;;;;;5.00;1.63;;;;;;;;;;6266198;22;20023;-91
2024/01/02 01:17:39;;;;;;;2.97;1.40;;;;;;;;;;6242689;22;20015;-92
2024/01/02 01:20:05;;;;;;;2.10;1.27;;;;;;;;;;6241335;22;20053;-92
2024/01/02 01:22:31;;;;;;;4.07;1.48;;;;;;;;;;6269032;22;20082;-92
2024/01/02 01:24:57;;;;;;;3.45;1.50;;;;;;;;;;6242409;22;20011;-92
2024/01/02 01:27:23;;;;;;;5.50;1.70;;;;;;;;;;6244129;22;20477;-92
2024/01/02 01:29:49;;;;;;;5.93;1.67;;;;;;;;;;6243336;22;20019;-92
2024/01/02 01:32:15;;;;;;;7.75;2.30;;;;;;;;;;6266823;22;20332;-92
2024/01/02 01:34:41;;;;;;;9.30;1.98;;;;;;;;;;6243420;22;20029;-92
2024/01/02 01:37:07;;;;;;;4.15;1.63;;;;;;;;;;6240661;22;20015;-92
2024/01/02 01:39:34;;;;;;;6.20;1.60;;;;;;;;;;6243137;22;20057;-92
2024/01/02 01:42:00;;;;;;;4.82;1.60;;;;;;;;;;6240196;22;20077;-92
2024/01/02 01:44:26;;;;;;;4.75;2.13;;;;;;;;;;6268929;22;20023;-92
2024/01/02 01:46:52;;;;;;;7.38;2.55;;;;;;;;;;6242816;22;20022;-92
2024/01/02 01:49:17;;;;;;;8.88;2.33;;;;;;;;;;6266293;22;20455;-92
2024/01/02 01:51:44;;;;;;;8.93;2.72;;;;;;;;;;6243604;22;20015;-91
2024/01/02 01:54:10;;;;;;;6.85;2.20;;;;;;;;;;6239569;22;20138;-92
2024/01/02 01:56:38;;;;;;;10.40;2.75;;;;;;;;;;6268990;22;20020;-92
2024/01/02 01:59:05;;;;;;;11.68;2.47;;;;;;;;;;6267106;22;20019;-92
2024/01/02 02:01:31;;;;;;;6.63;2.92;;;;;;;;;;6244971;22;20740;-92
2024/01/02 02:03:57;;;;;;;11.80;3.28;;;;;;;;;;6269721;22;20329;-92
2024/01/02 02:06:23;;;;;;;11.77;3.05;;;;;;;;;;6244771;22;20015;-92
2024/01/02 02:08:52;;;;;;;13.77;4.05;;;;;;;;;;6271899;22;20016;-91
2024/01/02 02:11:18;;;;;;;12.40;3.83;;;;;;;;;;6243240;22;20019;-92
2024/01/02 02:13:44;;;;;;;8.88;3.42;;;;;;;;;;6245226;22;20081;-91
2024/01/02 02:16:10;;;;;;;11.30;3.83;;;;;;;;;;6242070;22;20380;-91
2024/01/02 02:18:36;;;;;;;7.60;3.53;;;;;;;;;;6245025;22;20015;-91
2024/01/02 02:21:02;;;;;;;9.57;3.22;;;;;;;;;;6242621;22;20458;-91
2024/01/02 02:23:28;;;;;;;11.18;3.78;;;;;;;;;;6245228;22;20102;-92
2024/01/02 02:25:54;;;;;;;7.32;3.05;;;;;;;;;;6243168;22;20022;-91
2024/01/02 02:28:20;;;;;;;8.27;3.80;;;;;;;;;;6243175;22;20086;-91
2024/01/02 02:30:46;;;;;;;12.68;4.35;;;;;;;;;;6243118;22;20153;-91
2024/01/02 02:33:12;;;;;;;9.55;3.92;;;;;;;;;;6242001;22;20011;-91
2024/01/02 02:35:38;;;;;;;11.07;3.80;;;;;;;;;;6270124;22;20422;-91
2024/01/02 02:38:04;;;;;;;11.43;3.60;;;;;;;;;;6242950;22;20023;-91
2024/01/02 02:40:30;;;;;;;7.32;3.88;;;;;;;;;;6242815;22;20015;-91
2024/01/02 02:42:56;;;;;;;11.88;3.75;;;;;;;;;;6244327;22;20386;-92
2024/01/02 02:45:22;;;;;;;11.82;3.80;;;;;;;;;;6244373;22;20019;-90
2024/01/02 02:47:48;;;;;;;8.88;3.63;;;;;;;;;;6244852;22;20454;-91
2024/01/02 02:50:14;;;;;;;7.13;3.75;;;;;;;;;;6241246;22;20015;-91
2024/01/02 02:52:40;;;;;;;5.22;3.45;;;;;;;;;;6244545;22;20465;-91
2024/01/02 02:55:07;;;;;;;9.10;3.90;;;;;;;;;;6266963;22;20021;-90
2024/01/02 02:57:33;;;;;;;9.82;3.85;;;;;;;;;;6268976;22;20346;-91
2024/01/02 03:00:00;;;;;;;8.95;4.10;;;;;;;;;;6240712;22;20095;-91
2024/01/02 03:02:26;;;;;;;7.78;3.47;;;;;;;;;;6244375;22;20095;-91
2024/01/02 03:04:52;;;;;;;9.77;3.67;;;;;;;;;;6243492;22;20411;-91
2024/01/02 03:07:18;;;;;;;6.13;3.22;;;;;;;;;;6241374;22;20007;-91
2024/01/02 03:09:44;;;;;;;6.63;3.35;;;;;;;;;;6243422;22;20031;-91
2024/01/02 03:12:11;;;;;;;8.60;3.50;;;;;;;;;;6244147;22;20019;-92
2024/01/02 03:14:37;;;;;;;8.93;3.50;;;;;;;;;;6244984;22;20705;-91
2024/01/02 03:17:04;;;;;;;13.32;3.35;;;;;;;;;;6242112;22;20021;-91
2024/01/02 03:19:30;;;;;;;11.27;3.65;;;;;;;;;;6269785;22;20026;-91
2024/01/02 03:21:56;;;;;;;9.52;3.40;;;;;;;;;;6243001;22;20051;-92
2024/01/02 03:24:22;;;;;;;8.40;3.17;;;;;;;;;;6242566;22;20007;-91
2024/01/02 03:26:48;;;;;;;8.77;3.25;;;;;;;;;;6244892;22;20015;-91
2024/01/02 03:29:17;;;;;;;6.20;3.08;;;;;;;;;;6242400;22;20018;-91
2024/01/02 03:31:43;;;;;;;7.63;3.03;;;;;;;;;;6245493;22;20014;-91
2024/01/02 03:34:09;;;;;;;8.68;3.20;;;;;;;;;;6266722;22;20086;-91
2024/01/02 03:36:35;;;;;;;7.32;3.42;;;;;;;;;;6244457;22;20062;-91
2024/01/02 03:39:02;;;;;;;6.18;3.10;;;;;;;;;;6241596;22;20022;-92
2024/01/02 03:41:28;;;;;;;8.93;3.13;;;;;;;;;;6244123;22;20155;-91
2024/01/02 03:43:54;;;;;;;6.85;3.10;;;;;;;;;;6243278;22;20159;-91
2024/01/02 03:46:20;;;;;;;8.38;3.40;;;;;;;;;;6242362;22;20399;-91
2024/01/02 03:48:46;;;;;;;7.47;2.92;;;;;;;;;;6268940;22;20011;-91
2024/01/02 03:51:12;;;;;;;10.05;2.88;;;;;;;;;;6265404;22;20740;-91
2024/01/02 03:53:38;;;;;;;7.30;3.35;;;;;;;;;;6244043;22;20015;-92
2024/01/02 03:56:04;;;;;;;6.80;2.70;;;;;;;;;;6240263;22;20072;-92
2024/01/02 03:58:30;;;;;;;6.80;2.80;;;;;;;;;;6244517;22;20404;-92
2024/01/02 04:00:56;;;;;;;10.73;2.95;;;;;;;;;;6241913;22;20011;-92
2024/01/02 04:03:23;;;;;;;7.32;2.40;;;;;;;;;;6243513;22;20069;-91
2024/01/02 04:05:49;;;;;;;6.43;3.00;;;;;;;;;;6268556;22;20017;-91
2024/01/02 04:08:15;;;;;;;4.22;2.70;;;;;;;;;;6241382;22;20015;-92
2024/01/02 04:10:42;;;;;;;6.50;2.72;;;;;;;;;;6269204;22;20031;-91
2024/01/02 04:13:09;;;;;;;7.47;3.25;;;;;;;;;;6240917;22;20051;-92
2024/01/02 04:15:35;;;;;;;5.32;2.72;;;;;;;;;;6245575;22;20015;-91
2024/01/02 04:18:01;;;;;;;7.53;2.80;;;;;;;;;;6241953;22;20105;-91
2024/01/02 04:20:27;;;;;;;5.00;2.47;;;;;;;;;;6244250;22;20011;-90
2024/01/02 04:22:54;;;;;;;6.70;2.88;;;;;;;;;;6244380;22;20086;-92
2024/01/02 04:25:21;;;;;;;4.53;2.47;;;;;;;;;;6240702;22;20074;-92
2024/01/02 04:27:47;;;;;;;6.43;2.78;;;;;;;;;;6293464;22;20015;-91
2024/01/02 04:30:13;;;;;;;5.65;2.78;;;;;;;;;;6240779;22;20019;-92
2024/01/02 04:32:39;;;;;;;6.03;2.60;;;;;;;;;;6242417;22;20916;-90
2024/01/02 04:35:06;;;;;;;5.45;2.72;;;;;;;;;;6266038;22;20019;-91
2024/01/02 04:37:32;;;;;;;7.40;2.38;;;;;;;;;;6269587;22;20015;-92
2024/01/02 04:39:58;;;;;;;7.82;2.50;;;;;;;;;;6266473;22;20343;-92
2024/01/02 04:42:24;;;;;;;6.68;2.42;;;;;;;;;;6246030;22;20023;-92
2024/01/02 04:44:50;;;;;;;3.63;2.17;;;;;;;;;;6296463;22;20011;-91
2024/01/02 04:47:16;;;;;;;6.80;2.28;;;;;;;;;;6241708;22;20089;-91
2024/01/02 04:49:42;;;;;;;4.85;1.92;;;;;;;;;;6269595;22;20030;-91
2024/01/02 04:52:08;;;;;;;3.65;1.98;;;;;;;;;;6240247;22;20011;-91
2024/01/02 04:54:34;;;;;;;4.82;2.05;;;;;;;;;;6244174;22;20081;-91
2024/01/02 04:57:00;;;;;;;5.40;1.70;;;;;;;;;;6265626;22;20019;-92
2024/01/02 04:59:26;;;;;;;2.05;1.58;;;;;;;;;;6267825;22;20046;-90
2024/01/02 05:01:52;;;;;;;2.38;1.85;;;;;;;;;;6267707;22;20015;-91
2024/01/02 05:04:18;;;;;;;2.33;1.60;;;;;;;;;;6241026;22;20020;-92
2024/01/02 05:06:44;;;;;;;7.43;1.70;;;;;;;;;;6245855;22;20012;-91
2024/01/02 05:09:10;;;;;;;3.53;1.80;;;;;;;;;;6271622;22;20026;-92
2024/01/02 05:11:37;;;;;;;4.32;1.50;;;;;;;;;;6248599;22;20023;-91
2024/01/02 05:14:03;;;;;;;4.72;2.05;;;;;;;;;;6246011;22;20015;-91
2024/01/02 05:16:29;;;;;;;3.38;1.80;;;;;;;;;;6247542;22;20022;-92
2024/01/02 05:18:55;;;;;;;4.65;2.00;;;;;;;;;;6275872;22;20018;-91
2024/01/02 05:21:21;;;;;;;2.65;1.60;;;;;;;;;;6246163;22;20022;-92
2024/01/02 05:23:47;;;;;;;2.40;1.92;;;;;;;;;;6248860;22;20019;-91
2024/01/02 05:26:13;;;;;;;2.45;1.70;;;;;;;;;;6244937;22;20038;-91
2024/01/02 05:28:39;;;;;;;6.32;1.95;;;;;;;;;;6272517;22;20015;-90
2024/01/02 05:31:05;;;;;;;2.70;2.28;;;;;;;;;;6245510;22;20019;-91
2024/01/02 05:33:31;;;;;;;2.85;1.83;;;;;;;;;;6248122;22;20029;-92
2024/01/02 05:35:57;;;;;;;2.72;1.52;;;;;;;;;;6245698;22;20019;-90
2024/01/02 05:38:23;;;;;;;3.97;1.80;;;;;;;;;;6249005;22;20014;-92
2024/01/02 05:40:49;;;;;;;2.47;1.75;;;;;;;;;;6274561;22;20421;-91
2024/01/02 05:43:15;;;;;;;4.57;1.85;;;;;;;;;;6273518;22;20069;-92
2024/01/02 05:45:41;;;;;;;4.05;1.70;;;;;;;;;;6275807;22;20069;-92
2024/01/02 05:48:09;;;;;;;1.58;1.48;;;;;;;;;;6245369;22;20011;-91
2024/01/02 05:50:35;;;;;;;1.60;1.50;;;;;;;;;;6271723;22;20317;-92
2024/01/02 05:53:01;;;;;;;2.80;1.50;;;;;;;;;;6271974;22;20853;-92
2024/01/02 05:55:27;;;;;;;2.40;1.60;;;;;;;;;;6247985;22;20011;-91
2024/01/02 05:57:53;;;;;;;3.75;1.52;;;;;;;;;;6248320;22;20111;-92
2024/01/02 06:00:20;;;;;;;3.80;1.50;;;;;;;;;;6246208;22;20018;-92
2024/01/02 06:02:46;;;;;;;3.45;1.60;;;;;;;;;;6248021;22;20058;-92
2024/01/02 06:05:13;;;;;;;2.35;1.42;;;;;;;;;;6245742;22;20071;-92
2024/01/02 06:07:39;;;;;;;2.67;1.45;;;;;;;;;;6248149;22;20015;-91
2024/01/02 06:10:06;;;;;;;2.17;1.17;;;;;;;;;;6245027;22;20049;-92
2024/01/02 06:12:32;;;;;;;2.13;1.60;;;;;;;;;;6271990;22;20019;-92
2024/01/02 06:14:58;;;;;;;1.38;1.20;;;;;;;;;;6245727;22;20022;-92
2024/01/02 06:17:24;;;;;;;2.53;1.40;;;;;;;;;;6299899;22;20022;-91
2024/01/02 06:19:50;;;;;;;1.83;1.25;;;;;;;;;;6249646;22;20019;-91
2024/01/02 06:22:16;;;;;;;2.13;1.30;;;;;;;;;;6247833;22;20595;-91
2024/01/02 06:24:42;;;;;;;1.40;1.15;;;;;;;;;;6273909;22;20041;-91
2024/01/02 06:27:08;;;;;;;1.10;1.00;;;;;;;;;;6245920;22;20014;-92
2024/01/02 06:29:34;;;;;;;1.30;1.00;;;;;;;;;;6272042;22;20054;-91
2024/01/02 06:32:00;;;;;;;1.10;1.00;;;;;;;;;;6245953;22;20007;-92
2024/01/02 06:34:27;;;;;;;2.20;1.17;;;;;;;;;;6247576;22;20011;-92
2024/01/02 06:36:53;;;;;;;0.98;0.80;;;;;;;;;;6273957;22;20087;-92
2024/01/02 06:39:19;;;;;;;0.90;0.90;;;;;;;;;;6271202;22;20427;-92
2024/01/02 06:41:45;;;;;;;4.40;1.10;;;;;;;;;;6273040;22;20086;-92
2024/01/02 06:44:12;;;;;;;0.80;0.80;;;;;;;;;;6245211;22;20027;-92
2024/01/02 06:46:38;;;;;;;0.73;0.73;;;;;;;;;;6249221;22;20018;-92
2024/01/02 06:49:05;;;;;;;1.27;0.80;;;;;;;;;;6247240;22;20019;-92
2024/01/02 06:51:31;;;;;;;0.70;0.70;;;;;;;;;;6249810;22;20459;-92
2024/01/02 06:53:57;;;;;;;0.70;0.70;;;;;;;;;;6300349;22;20019;-92
2024/01/02 06:56:23;;;;;;;1.63;0.82;;;;;;;;;;6252160;22;20010;-92
2024/01/02 06:58:49;;;;;;;0.65;0.65;;;;;;;;;;6252197;22;20387;-92
2024/01/02 07:01:15;;;;;;;0.90;0.85;;;;;;;;;;6273174;22;20011;-93
2024/01/02 07:03:41;;;;;;;0.70;0.70;;;;;;;;;;6250065;22;20109;-92
2024/01/02 07:06:07;;;;;;;1.10;0.70;;;;;;;;;;6247263;22;20014;-92
2024/01/02 07:08:34;;;;;;;1.35;0.77;;;;;;;;;;6275304;22;20085;-92
2024/01/02 07:11:00;;;;;;;0.80;0.80;;;;;;;;;;6272208;22;20062;-92
2024/01/02 07:13:26;;;;;;;2.08;1.00;;;;;;;;;;6274925;22;20339;-92
2024/01/02 07:15:52;;;;;;;0.82;0.80;;;;;;;;;;6249550;22;20071;-92
2024/01/02 07:18:18;;;;;;;0.77;0.77;;;;;;;;;;6248047;22;20062;-93
2024/01/02 07:20:44;;;;;;;1.05;0.90;;;;;;;;;;6274382;22;20534;-92
2024/01/02 07:23:10;;;;;;;0.80;0.80;;;;;;;;;;6247762;22;20015;-92
2024/01/02 07:25:36;;;;;;;1.42;1.00;;;;;;;;;;6251772;22;20076;-92
2024/01/02 07:28:02;;;;;;;0.90;0.90;;;;;;;;;;6245818;22;20025;-91
2024/01/02 07:30:28;;;;;;;1.05;0.95;;;;;;;;;;6246887;22;20016;-91
2024/01/02 07:32:54;;;;;;;2.28;1.30;;;;;;;;;;6248032;22;20015;-91
2024/01/02 07:35:20;;;;;;;1.48;1.35;;;;;;;;;;6271673;22;20023;-92
2024/01/02 07:37:48;;;;;;;1.52;1.40;;;;;;;;;;6274017;22;20033;-92
2024/01/02 07:40:14;;;;;;;1.23;1.13;;;;;;;;;;6297215;22;20065;-92
2024/01/02 07:42:41;;;;;;;1.50;1.40;;;;;;;;;;6247225;22;20391;-92
2024/01/02 07:45:07;;;;;;;1.38;1.27;;;;;;;;;;6245593;22;20574;-92
2024/01/02 07:47:34;;;;;;;1.63;1.52;;;;;;;;;;6249350;22;20045;-92
2024/01/02 07:50:00;;;;;;;2.08;1.88;;;;;;;;;;6246708;22;20015;-92
2024/01/02 07:52:26;;;;;;;1.85;1.75;;;;;;;;;;6247240;22;20021;-92
2024/01/02 07:54:52;;;;;;;1.85;1.75;;;;;;;;;;6249073;22;20023;-92
2024/01/02 07:57:18;;;;;;;2.50;2.20;;;;;;;;;;6245254;22;20015;-92
2024/01/02 07:59:44;;;;;;;3.30;2.28;;;;;;;;;;6272579;22;20015;-93
2024/01/02 08:02:10;;;;;;;2.55;2.20;;;;;;;;;;6245956;22;20019;-92
2024/01/02 08:04:36;;;;;;;2.70;2.50;;;;;;;;;;6248340;22;20019;-91
2024/01/02 08:07:04;;;;;;;2.63;2.22;;;;;;;;;;6245130;22;20029;-91
2024/01/02 08:09:30;;;;;;;2.88;2.17;;;;;;;;;;6274086;22;20428;-92
2024/01/02 08:11:56;;;;;;;4.25;2.38;;;;;;;;;;6274476;22;20022;-92
2024/01/02 08:14:22;;;;;;;4.20;2.28;;;;;;;;;;6273793;22;20089;-92
2024/01/02 08:16:48;;;;;;;3.50;2.63;;;;;;;;;;6274241;22;20011;-92
2024/01/02 08:19:14;;;;;;;3.75;2.70;;;;;;;;;;6297018;22;20038;-92
2024/01/02 08:21:40;;;;;;;2.80;2.40;;;;;;;;;;6272737;22;20103;-92
2024/01/02 08:24:09;;;;;;;4.45;2.72;;;;;;;;;;6247314;22;20023;-92
2024/01/02 08:27:20;;;;;;;6.13;3.15;;;;;;;;;;6278743;22;20019;-92
2024/01/02 08:30:34;;;;;;;5.05;2.90;;;;;;;;;;6299841;22;20394;-92
2024/01/02 08:36:46;;;;;;;7.55;3.10;;;;;;;;;;6300514;22;20064;-91
2024/01/02 08:39:24;;;;;;;8.75;3.53;;;;;;;;;;6276594;22;20057;-92
2024/01/02 08:41:53;;;;;;;8.65;3.92;;;;;;;;;;6182556;23;20026;-92
2024/01/02 08:44:33;;;;;;;12.60;3.70;;;;;;;;;;6185058;23;20099;-92
2024/01/02 08:50:20;;;;;;;12.70;4.30;;;;;;;;;;6204736;23;20028;-92
2024/01/02 09:02:17;;;;;;;18.00;4.47;;;;;;;;;;6171210;23;20042;-92
2024/01/02 09:05:30;;;;;;;16.02;4.78;;;;;;;;;;6177643;23;20027;-92
2024/01/02 09:08:33;;;;;;;17.25;4.13;;;;;;;;;;6274304;22;20061;-91
2024/01/02 09:11:32;;;;;;;15.65;4.60;;;;;;;;;;6295569;22;20042;-93
2024/01/02 09:14:16;;;;;;;12.00;4.00;;;;;;;;;;6252967;22;20019;-92
2024/01/02 09:16:49;;;;;;;18.75;4.30;;;;;;;;;;6250485;22;20414;-91
2024/01/02 09:19:24;;;;;;;15.93;3.92;;;;;;;;;;6248628;22;20535;-91
2024/01/02 09:22:09;;;;;;;12.60;3.72;;;;;;;;;;6276473;22;20439;-91
2024/01/02 09:28:12;;;;;;;;;;;;;;;;;;;;;
2024/01/02 09:37:28;;;;;;;13.73;3.08;;;;;;;;;;6240350;23;20020;-92
2024/01/02 09:46:12;;;;;;;14.18;2.22;;;;;;;;;;6291313;22;20019;-90
2024/01/02 09:49:00;;;;;;;16.55;2.60;;;;;;;;;;6297089;22;20451;-91
2024/01/02 09:59:06;;;;;;;9.85;1.98;;;;;;;;;;6304568;22;20023;-91
2024/01/02 10:02:26;;;;;;;12.68;1.90;;;;;;;;;;6239188;22;20018;-92
2024/01/02 10:05:44;;;;;;;;;;;;;;;;;;;;;
2024/01/02 10:12:56;;;;;;;;;;;;;;;;;;;;;
2024/01/02 10:15:56;;;;;;;15.25;2.80;;;;;;;;;;6181855;22;20023;-92
2024/01/02 10:23:00;;;;;;;12.27;2.40;;;;;;;;;;6272869;22;20024;-91
2024/01/02 10:26:47;;;;;;;6.13;1.90;;;;;;;;;;6110099;23;20061;-92
2024/01/02 10:29:47;;;;;;;17.58;2.47;;;;;;;;;;6096341;23;20031;-92
2024/01/02 10:43:31;;;;;;;9.20;1.75;;;;;;;;;;6014180;23;21092;-92
2024/01/02 10:50:00;;;;;;;10.13;2.55;;;;;;;;;;6057644;22;20025;-92
2024/01/02 11:00:20;;;;;;;;;;;;;;;;;;;;;
2024/01/02 11:03:10;;;;;;;8.60;1.30;;;;;;;;;;6166509;23;20808;-92
2024/01/02 11:06:25;;;;;;;6.50;1.92;;;;;;;;;;6263003;22;20360;-91
2024/01/02 11:12:33;;;;;;;10.48;1.80;;;;;;;;;;6232108;23;19922;-93
2024/01/02 11:15:15;;;;;;;;;;;;;;;;;;;;;
2024/01/02 11:18:12;;;;;;;10.50;2.00;;;;;;;;;;6209944;23;20012;-91
2024/01/02 11:21:19;;;;;;;8.05;1.60;;;;;;;;;;6167982;23;20263;-91
2024/01/02 11:23:58;;;;;;;10.20;1.65;;;;;;;;;;6206239;23;20024;-90
2024/01/02 11:29:49;;;;;;;12.40;1.70;;;;;;;;;;6210902;23;20035;-91
2024/01/02 11:32:20;;;;;;;15.70;2.40;;;;;;;;;;6179531;23;20019;-90
2024/01/02 11:35:00;;;;;;;;;;;;;;;;;;;;;
2024/01/02 11:41:27;;;;;;;12.82;2.08;;;;;;;;;;6119882;23;20036;-92
2024/01/02 11:44:07;;;;;;;;;;;;;;;;;;6222310;22;20020;-92
2024/01/02 11:50:21;;;;;;;13.32;2.40;;;;;;;;;;6258214;22;20031;-92
2024/01/02 12:28:01;;;;;;;20.00;3.33;;;;;;;;;;5914368;24;20071;-93
2024/01/02 12:37:57;;;;;;;;;;;;;;;;;;;;;
2024/01/02 12:48:07;;;;;;;24.45;3.45;;;;;;;;;;5849249;24;20149;-93
2024/01/02 12:50:43;;;;;;;20.45;3.72;;;;;;;;;;5835288;24;20091;-92
2024/01/02 12:53:39;;;;;;;;;;;;;;;;;;;;;
2024/01/02 12:56:31;;;;;;;14.77;3.40;;;;;;;;;;6235935;22;20016;-92
2024/01/02 12:59:11;;;;;;;13.30;3.10;;;;;;;;;;6224811;22;20020;-93
2024/01/02 13:01:47;;;;;;;20.35;4.97;;;;;;;;;;6252307;22;20470;-92
2024/01/02 13:04:35;;;;;;;14.70;4.20;;;;;;;;;;6245665;22;20015;-93
2024/01/02 13:07:11;;;;;;;22.92;3.63;;;;;;;;;;6234306;22;20094;-93
2024/01/02 13:09:38;;;;;;;12.20;3.33;;;;;;;;;;6227840;22;20034;-93
2024/01/02 13:12:44;;;;;;;11.05;3.22;;;;;;;;;;6242785;22;20015;-92
2024/01/02 13:49:50;;;;;;;;;;;;;;;;;;;;;
2024/01/02 14:03:31;;;;;;;;;;;;;;;;;;;;;
2024/01/02 14:07:02;;;;;;;;;;;;;;;;;;;;;
2024/01/02 14:10:16;;;;;;;25.95;5.70;;;;;;;;;;5982321;23;20565;-93
2024/01/02 14:16:44;;;;;;;;;;;;;;;;;;;;;
2024/01/02 14:19:47;;;;;;;;;;;;;;;;;;;;;
2024/01/02 14:22:54;;;;;;;18.15;6.30;;;;;;;;;;6107996;23;20090;-94
2024/01/02 14:26:08;;;;;;;16.33;5.55;;;;;;;;;;6021974;23;20018;-92
2024/01/02 14:32:39;;;;;;;14.02;5.28;;;;;;;;;;6144828;23;20033;-93
2024/01/02 14:35:47;;;;;;;;;;;;;;;;;;;;;
2024/01/02 14:39:20;;;;;;;;;;;;;;;;;;;;;
2024/01/02 15:06:18;;;;;;;;;;;;;;;;;;;;;
2024/01/02 15:09:30;;;;;;;;;;;;;;;;;;;;;
2024/01/02 18:36:38;;;;;;;1.65;1.55;;;;;;;;;;6336396;22;20018;-84
2024/01/02 18:39:41;;;;;;;;;;;;;;;;;;;;;
2024/01/02 18:55:17;;;;;;;1.90;1.70;;;;;;;;;;6294447;22;20015;-84
2024/01/02 19:01:38;;;;;;;;;;;;;;;;;;;;;
2024/01/02 19:08:38;;;;;;;2.00;1.80;;;;;;;;;;6012798;23;20023;-85
2024/01/02 23:52:44;;;;;;;;;;;;;;;;;;;;;
2024/01/02 23:59:31;;;;;;;;;;;;;;;;;;;;;
